Time;durP1;ratioP1;P1;durP2;ratioP2;P2;SDS_P1;SDS_P2;PMS_P1;PMS_P2;Temp;Humidity;BMP_temperature;BMP_pressure;BME280_temperature;BME280_humidity;BME280_pressure;Samples;Min_cycle;Max_cycle;Signal;HPM_P1;HPM_P2
2021/10/13 00:01:25;;;;;;;2.37;1.87;;;7.80;99.90;;;;;;5051510;28;20202;-90
2021/10/13 00:03:52;;;;;;;2.60;1.87;;;7.80;99.90;;;;;;5044599;28;20234;-89
2021/10/13 00:06:19;;;;;;;2.25;1.70;;;7.80;99.90;;;;;;5049645;28;20289;-90
2021/10/13 00:08:48;;;;;;;2.47;1.80;;;7.90;99.90;;;;;;5054230;28;20225;-89
2021/10/13 00:11:15;;;;;;;2.27;1.90;;;7.90;99.90;;;;;;5054443;28;20626;-90
2021/10/13 00:13:43;;;;;;;1.80;1.70;;;7.90;99.90;;;;;;5050325;28;20229;-89
2021/10/13 00:16:10;;;;;;;2.08;1.88;;;7.80;99.90;;;;;;5053674;28;20570;-89
2021/10/13 00:18:37;;;;;;;2.27;1.63;;;7.80;99.90;;;;;;5054548;28;20236;-90
2021/10/13 00:21:04;;;;;;;2.67;1.80;;;7.90;99.90;;;;;;5058058;28;20596;-89
2021/10/13 00:23:31;;;;;;;1.90;1.77;;;7.80;99.90;;;;;;5053742;28;20229;-89
2021/10/13 00:25:59;;;;;;;1.80;1.60;;;7.90;99.90;;;;;;5052462;28;20784;-89
2021/10/13 00:28:26;;;;;;;2.00;1.70;;;7.90;99.90;;;;;;5045688;28;20240;-89
2021/10/13 00:30:53;;;;;;;2.10;1.90;;;8.00;99.90;;;;;;5048094;28;20202;-88
2021/10/13 00:33:20;;;;;;;2.30;1.70;;;7.90;99.90;;;;;;5053748;28;20588;-89
2021/10/13 00:35:47;;;;;;;2.60;2.00;;;7.90;99.90;;;;;;5058222;28;20232;-90
2021/10/13 00:38:14;;;;;;;2.25;2.05;;;7.90;99.90;;;;;;5057904;28;20228;-89
2021/10/13 00:40:41;;;;;;;2.37;2.00;;;7.80;99.90;;;;;;5053794;28;20198;-89
2021/10/13 00:43:09;;;;;;;2.22;2.03;;;7.80;99.90;;;;;;5054282;28;20220;-89
2021/10/13 00:45:36;;;;;;;2.27;2.07;;;7.80;99.90;;;;;;5045184;28;20217;-89
2021/10/13 00:48:04;;;;;;;4.00;2.45;;;7.80;99.90;;;;;;5055017;28;20672;-89
2021/10/13 00:50:31;;;;;;;2.30;2.10;;;7.80;99.90;;;;;;5063383;28;20568;-90
2021/10/13 00:52:58;;;;;;;3.10;2.70;;;7.90;99.90;;;;;;5057102;28;20212;-89
2021/10/13 00:55:25;;;;;;;3.53;2.80;;;7.80;99.90;;;;;;5052581;28;20199;-89
2021/10/13 00:57:53;;;;;;;3.20;2.90;;;7.80;99.90;;;;;;5053741;28;20589;-90
2021/10/13 01:00:25;;;;;;;3.23;2.93;;;7.80;99.90;;;;;;5046747;28;20229;-90
2021/10/13 01:03:03;;;;;;;4.53;3.27;;;7.70;99.90;;;;;;5047451;28;20563;-89
2021/10/13 01:05:56;;;;;;;4.13;3.20;;;7.80;99.90;;;;;;5050715;28;20587;-90
2021/10/13 01:08:35;;;;;;;4.70;3.47;;;7.80;99.90;;;;;;5055478;28;20226;-91
2021/10/13 01:11:22;;;;;;;3.60;3.17;;;7.80;99.90;;;;;;5048302;28;20201;-89
2021/10/13 01:13:59;;;;;;;3.77;3.30;;;7.90;99.90;;;;;;5047013;28;20221;-89
2021/10/13 01:16:41;;;;;;;3.70;2.83;;;7.90;99.90;;;;;;5045512;28;20205;-89
2021/10/13 01:19:19;;;;;;;3.33;3.03;;;7.90;99.90;;;;;;5049237;28;20321;-89
2021/10/13 01:22:01;;;;;;;4.10;3.70;;;7.90;99.90;;;;;;5048449;28;20203;-90
2021/10/13 01:24:35;;;;;;;4.53;3.95;;;7.90;99.90;;;;;;5041662;28;20895;-90
2021/10/13 01:27:19;;;;;;;5.15;4.20;;;7.90;99.90;;;;;;5038337;28;20217;-90
2021/10/13 01:29:50;;;;;;;3.67;3.37;;;7.90;99.90;;;;;;5058167;28;20229;-88
2021/10/13 01:32:22;;;;;;;3.87;3.50;;;7.90;99.70;;;;;;5044923;28;20656;-89
2021/10/13 01:34:51;;;;;;;3.77;3.47;;;7.90;99.60;;;;;;5058525;28;20227;-89
2021/10/13 01:37:21;;;;;;;4.30;3.90;;;7.80;99.90;;;;;;5043204;28;20198;-89
2021/10/13 01:39:53;;;;;;;6.20;4.03;;;7.90;99.90;;;;;;5044922;28;20233;-90
2021/10/13 01:42:21;;;;;;;4.20;3.80;;;7.90;99.70;;;;;;5044169;28;20564;-88
2021/10/13 01:44:56;;;;;;;5.20;4.10;;;7.90;99.40;;;;;;5051539;28;20225;-90
2021/10/13 01:47:24;;;;;;;4.13;3.80;;;8.00;99.30;;;;;;5043252;28;20207;-89
2021/10/13 01:49:55;;;;;;;4.88;4.40;;;7.90;99.10;;;;;;5043067;28;20662;-90
2021/10/13 01:52:24;;;;;;;5.57;3.80;;;7.90;99.40;;;;;;5057746;28;20201;-90
2021/10/13 01:54:53;;;;;;;4.60;4.20;;;7.90;99.50;;;;;;5041366;28;20218;-89
2021/10/13 01:57:24;;;;;;;5.15;4.28;;;7.90;99.50;;;;;;5048417;28;20669;-89
2021/10/13 01:59:56;;;;;;;6.00;4.17;;;7.80;99.60;;;;;;5042770;28;20710;-90
2021/10/13 02:02:28;;;;;;;4.93;4.50;;;7.80;99.50;;;;;;5050009;28;20218;-89
2021/10/13 02:04:57;;;;;;;5.17;4.63;;;7.80;99.60;;;;;;5055738;28;20533;-90
2021/10/13 02:07:26;;;;;;;4.43;4.03;;;7.90;99.30;;;;;;5054245;28;20296;-90
2021/10/13 02:09:55;;;;;;;5.95;4.20;;;7.90;99.20;;;;;;5048051;28;20229;-90
2021/10/13 02:12:24;;;;;;;4.93;4.43;;;7.90;98.90;;;;;;5057635;28;20217;-90
2021/10/13 02:14:54;;;;;;;4.40;4.00;;;7.90;98.80;;;;;;5052024;28;20221;-90
2021/10/13 02:17:22;;;;;;;4.93;4.43;;;7.90;98.90;;;;;;5051704;28;20194;-90
2021/10/13 02:19:50;;;;;;;4.97;4.07;;;7.90;98.90;;;;;;5049338;28;20239;-89
2021/10/13 02:22:18;;;;;;;5.53;4.50;;;7.90;99.00;;;;;;5053544;28;20266;-90
2021/10/13 02:24:49;;;;;;;6.13;4.23;;;7.90;99.00;;;;;;5043734;28;20309;-89
2021/10/13 02:27:26;;;;;;;5.43;4.60;;;7.90;99.10;;;;;;5051911;28;20194;-89
2021/10/13 02:29:54;;;;;;;5.20;4.60;;;7.90;99.00;;;;;;5051596;28;20642;-89
2021/10/13 02:32:21;;;;;;;4.85;4.35;;;7.90;99.10;;;;;;5050547;28;20212;-90
2021/10/13 02:34:48;;;;;;;5.37;4.87;;;8.00;99.30;;;;;;5053376;28;20228;-89
2021/10/13 02:37:16;;;;;;;6.78;6.07;;;8.10;99.20;;;;;;5055303;28;20544;-89
2021/10/13 02:39:44;;;;;;;5.33;4.40;;;8.10;98.70;;;;;;5060070;28;20236;-89
2021/10/13 02:42:11;;;;;;;5.27;4.10;;;8.10;98.90;;;;;;5051807;28;20200;-89
2021/10/13 02:44:38;;;;;;;4.70;3.72;;;8.00;98.90;;;;;;5050962;28;20232;-89
2021/10/13 02:47:13;;;;;;;5.38;3.88;;;8.00;98.60;;;;;;5045527;28;20209;-88
2021/10/13 02:49:46;;;;;;;3.90;3.50;;;8.00;98.60;;;;;;5056353;28;20229;-89
2021/10/13 02:52:19;;;;;;;7.35;3.63;;;8.00;98.10;;;;;;5047782;28;20198;-89
2021/10/13 02:54:54;;;;;;;4.23;3.70;;;8.00;98.30;;;;;;5040635;28;20724;-89
2021/10/13 02:57:26;;;;;;;3.67;3.37;;;8.00;98.10;;;;;;5049609;28;20586;-90
2021/10/13 02:59:53;;;;;;;4.00;3.50;;;8.00;98.00;;;;;;5045976;28;20227;-90
2021/10/13 03:02:26;;;;;;;3.37;2.63;;;8.00;98.10;;;;;;5044340;28;20225;-90
2021/10/13 03:04:58;;;;;;;2.50;2.30;;;7.90;97.50;;;;;;5047279;28;20221;-88
2021/10/13 03:07:28;;;;;;;2.37;2.17;;;7.90;97.10;;;;;;5044496;28;20205;-89
2021/10/13 03:09:58;;;;;;;2.47;2.27;;;7.80;97.20;;;;;;5061371;28;20250;-90
2021/10/13 03:12:30;;;;;;;2.60;2.40;;;7.80;97.50;;;;;;5054700;28;20681;-90
2021/10/13 03:14:59;;;;;;;3.17;2.30;;;7.90;97.40;;;;;;5046542;28;20231;-89
2021/10/13 03:17:28;;;;;;;3.77;2.80;;;7.80;97.60;;;;;;5056698;28;20206;-89
2021/10/13 03:19:57;;;;;;;2.97;2.77;;;7.80;97.80;;;;;;5039595;28;20226;-90
2021/10/13 03:22:26;;;;;;;3.97;3.45;;;7.80;98.10;;;;;;5052785;28;20205;-90
2021/10/13 03:24:53;;;;;;;4.17;3.50;;;7.80;98.30;;;;;;5042294;28;20305;-90
2021/10/13 03:27:25;;;;;;;3.93;3.40;;;7.80;98.30;;;;;;5053937;28;20206;-91
2021/10/13 03:29:52;;;;;;;3.93;3.63;;;7.70;98.50;;;;;;5041746;28;20218;-90
2021/10/13 03:32:20;;;;;;;4.17;3.77;;;7.60;98.70;;;;;;5050164;28;20231;-90
2021/10/13 03:34:48;;;;;;;5.20;4.50;;;7.70;98.90;;;;;;5050925;28;20686;-88
2021/10/13 03:37:16;;;;;;;5.17;4.67;;;7.60;99.00;;;;;;5063958;28;20205;-88
2021/10/13 03:39:43;;;;;;;6.47;4.73;;;7.50;99.10;;;;;;5060820;28;20232;-88
2021/10/13 03:42:11;;;;;;;5.50;4.93;;;7.60;99.30;;;;;;5056876;28;20587;-89
2021/10/13 03:44:38;;;;;;;6.03;4.87;;;7.60;99.30;;;;;;5059255;28;20300;-89
2021/10/13 03:47:06;;;;;;;6.03;4.90;;;7.60;99.40;;;;;;5057499;28;20205;-88
2021/10/13 03:49:33;;;;;;;5.63;4.57;;;7.70;99.30;;;;;;5050524;28;20237;-88
2021/10/13 03:52:02;;;;;;;6.90;5.10;;;7.70;99.30;;;;;;5053263;28;20202;-90
2021/10/13 03:54:29;;;;;;;6.97;5.20;;;7.80;99.10;;;;;;5056512;28;20305;-89
2021/10/13 03:56:56;;;;;;;6.37;5.00;;;7.80;98.90;;;;;;5045425;28;20196;-90
2021/10/13 03:59:23;;;;;;;5.33;4.83;;;7.90;98.50;;;;;;5046985;28;20253;-89
2021/10/13 04:01:50;;;;;;;5.33;4.83;;;7.80;98.50;;;;;;5043282;28;20197;-90
2021/10/13 04:04:17;;;;;;;5.35;4.85;;;7.80;98.60;;;;;;5050135;28;20222;-88
2021/10/13 04:06:43;;;;;;;6.90;5.07;;;7.90;98.40;;;;;;5058265;28;20193;-89
2021/10/13 04:09:12;;;;;;;6.80;5.27;;;7.80;98.30;;;;;;5042808;28;20218;-89
2021/10/13 04:11:39;;;;;;;5.28;4.78;;;7.80;98.40;;;;;;5055996;28;20206;-90
2021/10/13 04:14:06;;;;;;;7.00;5.05;;;7.80;98.40;;;;;;5051678;28;20254;-88
2021/10/13 04:16:33;;;;;;;5.60;5.00;;;7.90;98.50;;;;;;5055448;28;20328;-88
2021/10/13 04:19:00;;;;;;;5.77;5.10;;;7.90;98.20;;;;;;5058778;28;20230;-91
2021/10/13 04:21:27;;;;;;;5.20;4.67;;;7.80;98.10;;;;;;5053073;28;20529;-88
2021/10/13 04:23:54;;;;;;;5.50;5.00;;;7.80;98.00;;;;;;5057349;28;20230;-91
2021/10/13 04:26:22;;;;;;;6.93;5.57;;;7.80;98.10;;;;;;5055854;28;20202;-87
2021/10/13 04:28:49;;;;;;;5.77;5.27;;;7.80;98.30;;;;;;5050500;28;20225;-88
2021/10/13 04:31:16;;;;;;;7.00;5.87;;;7.90;98.30;;;;;;5055535;28;20293;-88
2021/10/13 04:33:43;;;;;;;6.43;5.80;;;7.90;98.20;;;;;;5055617;28;20305;-88
2021/10/13 04:36:10;;;;;;;7.22;5.88;;;7.70;98.20;;;;;;5063990;28;20566;-88
2021/10/13 04:38:37;;;;;;;6.13;5.53;;;7.80;98.30;;;;;;5050121;28;20230;-90
2021/10/13 04:41:04;;;;;;;6.55;5.57;;;7.80;98.30;;;;;;5049320;28;20573;-87
2021/10/13 04:43:33;;;;;;;5.72;5.22;;;7.90;98.20;;;;;;5062223;28;20676;-87
2021/10/13 04:46:00;;;;;;;6.38;5.72;;;7.90;97.50;;;;;;5050548;28;20198;-87
2021/10/13 04:48:27;;;;;;;5.97;5.38;;;7.90;97.60;;;;;;5054679;28;20226;-88
2021/10/13 04:50:54;;;;;;;6.50;5.90;;;7.90;97.40;;;;;;5048281;28;20321;-87
2021/10/13 04:53:21;;;;;;;6.30;5.70;;;7.80;97.80;;;;;;5047268;28;20309;-87
2021/10/13 04:55:48;;;;;;;7.17;6.47;;;7.80;97.60;;;;;;5057778;28;20390;-87
2021/10/13 04:58:15;;;;;;;7.83;5.70;;;7.80;97.30;;;;;;5058069;28;20200;-87
2021/10/13 05:00:44;;;;;;;7.30;5.70;;;7.70;97.20;;;;;;5053268;28;20225;-88
2021/10/13 05:03:11;;;;;;;7.27;5.83;;;7.60;97.10;;;;;;5047534;28;20195;-87
2021/10/13 05:05:38;;;;;;;6.50;5.90;;;7.60;97.10;;;;;;5058731;28;20201;-86
2021/10/13 05:08:06;;;;;;;6.17;5.57;;;7.50;96.90;;;;;;5052409;28;20550;-86
2021/10/13 05:10:33;;;;;;;9.50;6.70;;;7.50;97.30;;;;;;5046863;28;20209;-86
2021/10/13 05:13:00;;;;;;;11.02;5.90;;;7.40;97.10;;;;;;5065447;28;20221;-87
2021/10/13 05:15:27;;;;;;;8.07;6.17;;;7.40;97.20;;;;;;5055747;28;20194;-87
2021/10/13 05:18:01;;;;;;;8.10;5.50;;;7.40;97.30;;;;;;5062511;28;20194;-89
2021/10/13 05:20:29;;;;;;;6.60;5.90;;;7.50;97.30;;;;;;5052510;28;20221;-87
2021/10/13 05:22:56;;;;;;;7.03;6.07;;;7.60;97.50;;;;;;5051243;28;20195;-88
2021/10/13 05:25:23;;;;;;;6.60;6.00;;;7.50;97.40;;;;;;5047527;28;20225;-88
2021/10/13 05:27:50;;;;;;;7.03;6.27;;;7.40;97.30;;;;;;5050189;28;20209;-88
2021/10/13 05:30:17;;;;;;;7.63;5.78;;;7.40;97.60;;;;;;5046148;28;20317;-86
2021/10/13 05:32:44;;;;;;;6.77;6.03;;;7.30;97.80;;;;;;5046901;28;20221;-88
2021/10/13 05:35:12;;;;;;;7.87;5.43;;;7.20;98.10;;;;;;5051149;28;20313;-92
2021/10/13 05:37:39;;;;;;;7.43;6.27;;;7.20;98.10;;;;;;5044980;28;20207;-89
2021/10/13 05:40:07;;;;;;;9.57;7.00;;;7.10;97.70;;;;;;5048196;28;20238;-90
2021/10/13 05:42:34;;;;;;;13.90;6.73;;;7.00;98.10;;;;;;5055845;28;20201;-88
2021/10/13 05:45:01;;;;;;;7.93;6.37;;;7.00;98.40;;;;;;5040757;28;20317;-88
2021/10/13 05:47:28;;;;;;;8.40;7.17;;;7.10;98.40;;;;;;5046582;28;20288;-89
2021/10/13 05:49:55;;;;;;;9.37;7.27;;;7.10;98.30;;;;;;5038135;28;20678;-87
2021/10/13 05:52:23;;;;;;;8.63;7.00;;;7.10;98.40;;;;;;5043481;28;20191;-88
2021/10/13 05:54:50;;;;;;;9.03;6.57;;;7.10;98.70;;;;;;5043300;28;20218;-86
2021/10/13 05:57:17;;;;;;;7.50;6.45;;;7.10;98.50;;;;;;5048266;28;20209;-87
2021/10/13 05:59:47;;;;;;;8.90;6.33;;;7.20;98.50;;;;;;5051626;28;20232;-87
2021/10/13 06:02:20;;;;;;;8.70;6.30;;;7.30;98.30;;;;;;5046275;28;20204;-87
2021/10/13 06:04:47;;;;;;;8.63;5.97;;;7.40;97.90;;;;;;5052469;28;20221;-87
2021/10/13 06:07:15;;;;;;;6.70;5.97;;;7.40;97.80;;;;;;5050710;28;20224;-87
2021/10/13 06:09:44;;;;;;;10.00;7.00;;;7.40;97.60;;;;;;5054477;28;20228;-87
2021/10/13 06:12:11;;;;;;;9.07;6.40;;;7.40;97.50;;;;;;5063224;28;20205;-87
2021/10/13 06:14:38;;;;;;;12.70;7.50;;;7.50;97.80;;;;;;5051669;28;20619;-88
2021/10/13 06:17:06;;;;;;;7.75;6.93;;;7.60;97.30;;;;;;5058738;28;20201;-87
2021/10/13 06:19:33;;;;;;;9.50;7.27;;;7.60;97.20;;;;;;5053365;28;20700;-87
2021/10/13 06:22:01;;;;;;;6.83;6.13;;;7.60;96.80;;;;;;5048199;28;20204;-87
2021/10/13 06:24:28;;;;;;;10.30;6.87;;;7.70;97.00;;;;;;5062517;28;20320;-87
2021/10/13 06:26:56;;;;;;;8.52;6.30;;;7.80;96.90;;;;;;5055069;28;20201;-88
2021/10/13 06:29:23;;;;;;;9.10;6.07;;;7.90;96.60;;;;;;5043684;28;20222;-87
2021/10/13 06:31:51;;;;;;;8.60;5.97;;;7.80;96.60;;;;;;5044945;28;20281;-87
2021/10/13 06:34:18;;;;;;;8.98;6.55;;;7.90;96.50;;;;;;5043886;28;20612;-87
2021/10/13 06:36:45;;;;;;;10.20;6.60;;;8.00;95.70;;;;;;5056484;28;20208;-87
2021/10/13 06:39:12;;;;;;;12.02;7.75;;;8.00;95.70;;;;;;5053587;28;20228;-87
2021/10/13 06:41:39;;;;;;;8.57;7.45;;;8.00;95.50;;;;;;5056434;28;20212;-88
2021/10/13 06:44:11;;;;;;;9.40;7.87;;;8.00;95.40;;;;;;5057609;28;20247;-87
2021/10/13 06:46:39;;;;;;;13.32;8.30;;;8.20;95.70;;;;;;5058496;28;20206;-87
2021/10/13 06:49:06;;;;;;;13.07;9.40;;;8.40;95.80;;;;;;5048043;28;20658;-87
2021/10/13 06:51:33;;;;;;;10.82;8.63;;;8.50;95.30;;;;;;5050084;28;20278;-87
2021/10/13 06:54:00;;;;;;;10.45;8.98;;;8.50;94.50;;;;;;5053400;28;20230;-87
2021/10/13 06:56:27;;;;;;;10.77;8.32;;;8.60;94.80;;;;;;5042308;28;20213;-87
2021/10/13 06:58:54;;;;;;;10.07;7.90;;;8.80;94.30;;;;;;5048822;28;20218;-87
2021/10/13 07:01:22;;;;;;;13.65;8.45;;;9.00;94.10;;;;;;5053963;28;20276;-87
2021/10/13 07:03:49;;;;;;;12.02;8.73;;;9.10;93.10;;;;;;5056837;28;20541;-87
2021/10/13 07:06:16;;;;;;;11.73;8.63;;;9.20;92.60;;;;;;5055600;28;20266;-87
2021/10/13 07:08:43;;;;;;;11.25;8.25;;;9.30;92.80;;;;;;5054716;28;20229;-87
2021/10/13 07:11:10;;;;;;;10.98;8.02;;;9.30;92.60;;;;;;5043063;28;20220;-87
2021/10/13 07:13:40;;;;;;;12.68;7.97;;;9.50;92.30;;;;;;5044337;28;20721;-88
2021/10/13 07:16:07;;;;;;;8.40;7.32;;;9.60;91.90;;;;;;5044836;28;20249;-86
2021/10/13 07:18:35;;;;;;;7.43;6.57;;;9.60;91.60;;;;;;5044510;28;20218;-87
2021/10/13 07:21:47;;;;;;;7.72;6.65;;;9.60;90.80;;;;;;5077150;28;20216;-87
2021/10/13 07:24:14;;;;;;;9.70;6.20;;;9.60;90.60;;;;;;5060164;28;20242;-88
2021/10/13 07:26:44;;;;;;;7.93;7.10;;;9.40;90.50;;;;;;5052099;28;20639;-88
2021/10/13 07:29:11;;;;;;;9.55;7.38;;;9.40;90.50;;;;;;5062992;28;20228;-87
2021/10/13 07:31:39;;;;;;;9.23;7.45;;;9.20;91.60;;;;;;5061893;28;20266;-88
2021/10/13 07:34:07;;;;;;;11.48;8.35;;;9.10;92.50;;;;;;5047132;28;20313;-88
2021/10/13 07:36:35;;;;;;;9.07;7.38;;;9.00;92.30;;;;;;5059626;28;20208;-87
2021/10/13 07:39:02;;;;;;;10.95;7.65;;;9.00;91.90;;;;;;5059492;28;20236;-89
2021/10/13 07:41:29;;;;;;;9.30;7.28;;;8.90;91.70;;;;;;5058260;28;20217;-87
2021/10/13 07:43:56;;;;;;;11.15;7.45;;;8.80;92.50;;;;;;5055334;28;20253;-88
2021/10/13 07:46:25;;;;;;;7.50;6.43;;;8.80;93.20;;;;;;5058746;28;20198;-87
2021/10/13 07:48:52;;;;;;;10.95;6.38;;;8.70;93.20;;;;;;5056723;28;20230;-88
2021/10/13 07:51:20;;;;;;;7.63;5.88;;;8.80;91.90;;;;;;5057659;28;20642;-89
2021/10/13 07:53:47;;;;;;;8.65;6.53;;;9.00;91.80;;;;;;5061564;28;20222;-88
2021/10/13 07:56:14;;;;;;;24.60;11.65;;;9.20;91.50;;;;;;5064699;28;20200;-87
2021/10/13 07:58:41;;;;;;;10.90;6.30;;;9.40;90.70;;;;;;5063708;28;20763;-88
2021/10/13 08:01:08;;;;;;;11.32;6.38;;;9.50;90.50;;;;;;5068247;28;20648;-88
2021/10/13 08:03:35;;;;;;;9.95;5.82;;;9.60;90.20;;;;;;5082816;28;20239;-87
2021/10/13 08:06:02;;;;;;;7.60;5.60;;;9.50;90.60;;;;;;5065461;28;20198;-87
2021/10/13 08:08:31;;;;;;;6.55;5.40;;;9.60;89.80;;;;;;5047075;28;20225;-87
2021/10/13 08:10:58;;;;;;;7.47;5.50;;;9.60;89.50;;;;;;5048253;28;20203;-87
2021/10/13 08:36:42;;;;;;;4.90;3.60;;;9.40;86.30;;;;;;5090280;28;20244;-87
2021/10/13 08:39:09;;;;;;;6.88;3.92;;;9.30;86.80;;;;;;5078537;28;20248;-88
2021/10/13 08:41:36;;;;;;;5.38;4.10;;;9.20;86.30;;;;;;5085837;28;20276;-87
2021/10/13 08:44:04;;;;;;;6.00;4.57;;;9.40;86.90;;;;;;5085701;28;20226;-88
2021/10/13 08:49:56;;;;;;;6.40;3.83;;;9.80;85.50;;;;;;5069649;27;20256;-88
2021/10/13 08:52:43;;;;;;;4.32;3.90;;;10.00;80.20;;;;;;5056643;28;20230;-87
2021/10/13 08:55:12;;;;;;;4.50;3.53;;;9.90;81.40;;;;;;5065968;28;20399;-87
2021/10/13 08:57:40;;;;;;;7.05;4.15;;;9.70;80.80;;;;;;5091197;28;20198;-87
2021/10/13 09:00:08;;;;;;;4.30;3.90;;;9.60;81.30;;;;;;5067630;28;20229;-87
2021/10/13 09:02:40;;;;;;;5.63;4.63;;;9.50;82.40;;;;;;5088927;28;20210;-88
2021/10/13 09:05:11;;;;;;;9.57;4.80;;;9.40;83.30;;;;;;5067746;28;20289;-88
2021/10/13 09:07:39;;;;;;;5.07;4.40;;;9.30;84.40;;;;;;5072932;28;20197;-88
2021/10/13 09:10:08;;;;;;;5.63;4.53;;;9.40;86.50;;;;;;5084347;27;20228;-88
2021/10/13 09:12:36;;;;;;;5.47;4.38;;;9.40;87.80;;;;;;5065171;28;20308;-87
2021/10/13 09:15:06;;;;;;;6.20;4.00;;;9.50;87.30;;;;;;5063977;28;20233;-88
2021/10/13 09:17:51;;;;;;;8.38;5.22;;;9.60;86.80;;;;;;5082157;28;20228;-88
2021/10/13 09:20:18;;;;;;;7.03;3.90;;;9.80;86.00;;;;;;5083040;28;20251;-87
2021/10/13 09:23:05;;;;;;;4.70;3.55;;;9.90;83.60;;;;;;5063967;28;20190;-87
2021/10/13 09:25:36;;;;;;;4.35;3.78;;;10.00;83.10;;;;;;5064850;28;20266;-87
2021/10/13 09:30:45;;;;;;;6.20;3.97;;;10.60;79.00;;;;;;5060512;28;20615;-88
2021/10/13 09:33:14;;;;;;;4.97;3.83;;;11.30;70.70;;;;;;5051940;28;20197;-88
2021/10/13 09:35:47;;;;;;;5.63;3.72;;;11.90;67.00;;;;;;5067606;28;20557;-88
2021/10/13 09:38:16;;;;;;;9.80;3.50;;;12.30;59.70;;;;;;5066650;28;20201;-88
2021/10/13 09:40:45;;;;;;;3.00;2.75;;;12.40;56.90;;;;;;5066081;28;20253;-87
2021/10/13 09:43:33;;;;;;;4.50;2.88;;;12.10;58.20;;;;;;5072261;28;20422;-88
2021/10/13 09:46:09;;;;;;;2.95;2.63;;;12.00;56.00;;;;;;5062138;28;20274;-88
2021/10/13 09:48:39;;;;;;;3.75;2.92;;;12.00;54.50;;;;;;5076417;28;20235;-88
2021/10/13 09:51:20;;;;;;;3.45;2.70;;;11.90;57.90;;;;;;5073023;28;20198;-88
2021/10/13 09:53:49;;;;;;;4.13;3.20;;;11.80;60.30;;;;;;5087482;28;20227;-88
2021/10/13 09:56:35;;;;;;;5.45;3.40;;;11.40;63.90;;;;;;5083121;28;20291;-88
2021/10/13 09:59:13;;;;;;;5.22;3.80;;;11.00;68.40;;;;;;5063342;28;20221;-88
2021/10/13 10:01:44;;;;;;;3.50;3.20;;;11.00;68.40;;;;;;5063659;28;20231;-88
2021/10/13 10:04:15;;;;;;;4.10;3.58;;;10.80;66.00;;;;;;5068670;28;20225;-88
2021/10/13 10:06:44;;;;;;;4.60;3.25;;;10.60;71.80;;;;;;5075191;28;20236;-90
2021/10/13 10:09:17;;;;;;;5.70;3.80;;;10.70;70.10;;;;;;5067046;28;20304;-87
2021/10/13 10:11:47;;;;;;;5.55;3.40;;;10.80;69.30;;;;;;5080839;28;20202;-87
2021/10/13 10:14:52;;;;;;;4.75;3.42;;;10.90;74.00;;;;;;5059101;28;20233;-89
2021/10/13 10:17:41;;;;;;;6.95;3.47;;;11.20;67.90;;;;;;5060689;28;20210;-88
2021/10/13 10:20:08;;;;;;;5.10;3.63;;;12.30;61.50;;;;;;5055367;28;20267;-90
2021/10/13 10:22:47;;;;;;;4.88;3.97;;;13.30;54.20;;;;;;5061098;28;20198;-89
2021/10/13 10:25:14;;;;;;;4.47;3.83;;;13.60;49.40;;;;;;5062204;28;20217;-89
2021/10/13 10:27:43;;;;;;;5.65;3.88;;;13.30;48.20;;;;;;5065542;28;20552;-90
2021/10/13 10:30:20;;;;;;;5.80;3.30;;;13.00;49.50;;;;;;5061418;28;20219;-90
2021/10/13 10:33:18;;;;;;;4.43;3.13;;;12.60;49.10;;;;;;5067960;28;20553;-88
2021/10/13 10:35:49;;;;;;;3.80;3.33;;;12.10;48.70;;;;;;5067803;28;20213;-89
2021/10/13 10:38:19;;;;;;;3.83;3.28;;;12.30;51.40;;;;;;5066632;28;20608;-89
2021/10/13 10:40:46;;;;;;;4.78;4.10;;;12.50;51.50;;;;;;5045176;28;20213;-89
2021/10/13 10:43:25;;;;;;;4.45;4.05;;;12.50;51.70;;;;;;5064636;28;20197;-90
2021/10/13 10:45:58;;;;;;;4.22;3.83;;;12.70;49.20;;;;;;5057083;28;20681;-89
2021/10/13 10:48:27;;;;;;;5.57;3.60;;;12.90;49.40;;;;;;5054482;28;20237;-89
2021/10/13 10:51:01;;;;;;;4.35;3.47;;;13.20;48.00;;;;;;5062942;28;20205;-89
2021/10/13 10:53:42;;;;;;;5.32;3.97;;;13.40;47.20;;;;;;5065585;28;20631;-90
2021/10/13 10:56:27;;;;;;;5.15;3.65;;;13.50;46.50;;;;;;5061663;28;20272;-90
2021/10/13 10:59:05;;;;;;;3.55;3.17;;;13.50;46.60;;;;;;5056204;28;20260;-89
2021/10/13 11:01:33;;;;;;;3.20;2.90;;;13.30;45.00;;;;;;5057681;28;20540;-89
2021/10/13 11:04:07;;;;;;;3.75;2.90;;;13.00;46.60;;;;;;5060835;28;20244;-90
2021/10/13 11:06:36;;;;;;;4.00;3.17;;;12.80;45.30;;;;;;5058881;28;20265;-88
2021/10/13 11:09:07;;;;;;;5.30;3.67;;;12.40;44.60;;;;;;5073112;28;20317;-87
2021/10/13 11:11:40;;;;;;;4.65;3.40;;;12.10;48.70;;;;;;5084314;28;20197;-90
2021/10/13 11:19:17;;;;;;;4.85;3.83;;;11.40;55.10;;;;;;5095539;27;20224;-88
2021/10/13 11:21:45;;;;;;;4.15;3.53;;;11.10;57.50;;;;;;5099336;28;20268;-88
2021/10/13 11:24:13;;;;;;;4.32;3.92;;;10.70;59.60;;;;;;5102071;28;20225;-89
2021/10/13 11:26:44;;;;;;;4.80;3.35;;;10.90;63.00;;;;;;5102140;28;20236;-88
2021/10/13 11:29:19;;;;;;;4.93;3.40;;;11.10;62.00;;;;;;5090498;28;20332;-88
2021/10/13 11:31:46;;;;;;;4.65;2.50;;;11.40;56.50;;;;;;5108235;28;20279;-88
2021/10/13 11:34:17;;;;;;;5.38;2.80;;;11.50;48.80;;;;;;5109869;28;20656;-87
2021/10/13 11:36:53;;;;;;;4.85;2.72;;;12.00;50.50;;;;;;5109084;28;20211;-88
2021/10/13 11:39:22;;;;;;;2.90;2.20;;;12.50;45.00;;;;;;5124006;28;20235;-87
2021/10/13 11:42:14;;;;;;;2.78;2.03;;;12.80;43.70;;;;;;5130414;28;20215;-88
2021/10/13 11:48:01;;;;;;;4.60;2.70;;;12.70;39.60;;;;;;5122700;28;20207;-87
2021/10/13 11:50:32;;;;;;;3.30;2.67;;;12.50;42.30;;;;;;5109709;28;20196;-88
2021/10/13 11:53:01;;;;;;;3.75;2.50;;;12.60;42.80;;;;;;5108853;28;20190;-90
2021/10/13 11:55:30;;;;;;;4.25;2.38;;;12.80;43.50;;;;;;5107466;28;20209;-88
2021/10/13 11:57:59;;;;;;;4.22;2.70;;;12.90;43.50;;;;;;5110567;28;20205;-88
2021/10/13 12:00:43;;;;;;;4.85;2.90;;;12.60;44.20;;;;;;5108793;28;20259;-87
2021/10/13 12:03:14;;;;;;;4.80;2.63;;;12.20;46.20;;;;;;5110327;27;20196;-88
2021/10/13 12:05:46;;;;;;;3.45;1.88;;;12.10;46.10;;;;;;5093300;27;20293;-88
2021/10/13 12:08:14;;;;;;;2.70;2.35;;;11.80;45.80;;;;;;5105793;27;20248;-88
2021/10/13 12:10:44;;;;;;;3.85;2.10;;;11.70;44.30;;;;;;5111850;28;20260;-89
2021/10/13 12:13:14;;;;;;;3.58;2.15;;;11.80;48.40;;;;;;5093648;28;20213;-89
2021/10/13 12:15:42;;;;;;;4.03;1.90;;;11.80;46.00;;;;;;5085820;28;20200;-88
2021/10/13 12:18:15;;;;;;;3.63;2.17;;;11.90;46.10;;;;;;5086113;28;20216;-89
2021/10/13 12:20:44;;;;;;;1.95;1.65;;;11.80;46.30;;;;;;5084787;28;20721;-89
2021/10/13 12:23:14;;;;;;;1.90;1.70;;;11.70;45.50;;;;;;5089446;28;20197;-88
2021/10/13 12:25:41;;;;;;;1.60;1.50;;;11.70;44.20;;;;;;5089630;28;20284;-88
2021/10/13 12:28:17;;;;;;;5.32;1.90;;;11.90;45.10;;;;;;5085299;28;20211;-89
2021/10/13 12:30:46;;;;;;;2.58;1.80;;;12.00;45.20;;;;;;5088316;28;20209;-88
2021/10/13 12:33:16;;;;;;;4.00;2.00;;;12.10;44.40;;;;;;5087986;28;20292;-88
2021/10/13 12:35:45;;;;;;;2.35;1.85;;;12.10;46.60;;;;;;5087000;28;20201;-88
2021/10/13 12:38:13;;;;;;;2.63;2.20;;;11.90;45.10;;;;;;5092835;28;20185;-88
2021/10/13 12:47:44;;;;;;;4.13;1.90;;;12.10;46.10;;;;;;5066690;28;20263;-88
2021/10/13 12:50:14;;;;;;;3.05;1.60;;;12.00;48.70;;;;;;5086879;28;20237;-88
2021/10/13 12:52:55;;;;;;;3.53;1.63;;;12.00;46.10;;;;;;5089089;28;20208;-88
2021/10/13 12:58:43;;;;;;;4.70;1.80;;;12.30;43.10;;;;;;5088493;28;20228;-88
2021/10/13 13:01:17;;;;;;;2.83;1.80;;;12.50;39.50;;;;;;5083008;28;20249;-88
2021/10/13 13:03:48;;;;;;;2.70;1.70;;;12.90;39.20;;;;;;5078119;28;20225;-88
2021/10/13 13:06:15;;;;;;;4.47;1.80;;;13.20;37.80;;;;;;5087027;28;20231;-88
2021/10/13 13:08:46;;;;;;;3.42;1.90;;;13.30;38.50;;;;;;5097935;28;20287;-88
2021/10/13 13:11:20;;;;;;;4.93;2.10;;;13.20;39.50;;;;;;5087322;28;20215;-88
2021/10/13 13:13:48;;;;;;;2.85;1.90;;;13.20;38.90;;;;;;5089266;28;20296;-88
2021/10/13 13:16:15;;;;;;;2.72;2.35;;;13.00;38.70;;;;;;5092397;28;20200;-90
2021/10/13 13:22:15;;;;;;;2.63;2.00;;;12.60;40.00;;;;;;5049803;28;20285;-90
2021/10/13 13:24:44;;;;;;;3.80;2.00;;;12.30;42.60;;;;;;5058526;28;20185;-89
2021/10/13 13:27:14;;;;;;;5.88;2.05;;;12.10;42.70;;;;;;5104367;28;20235;-89
2021/10/13 13:29:55;;;;;;;2.45;1.85;;;12.10;43.60;;;;;;5107814;28;20220;-89
2021/10/13 13:32:22;;;;;;;6.30;2.20;;;12.10;41.50;;;;;;5090053;28;20255;-90
2021/10/13 13:34:50;;;;;;;3.08;1.95;;;12.00;44.50;;;;;;5090738;28;20231;-89
2021/10/13 13:37:17;;;;;;;3.17;2.00;;;12.10;43.60;;;;;;5078090;28;20205;-89
2021/10/13 13:39:46;;;;;;;2.80;1.83;;;12.00;44.70;;;;;;5073297;28;20216;-89
2021/10/13 13:48:27;;;;;;;2.78;2.20;;;12.40;39.80;;;;;;5094762;27;20193;-89
2021/10/13 13:51:05;;;;;;;1.90;1.50;;;12.60;39.60;;;;;;5090771;28;20268;-89
2021/10/13 13:53:35;;;;;;;2.53;1.92;;;12.40;37.50;;;;;;5099030;27;20219;-88
2021/10/13 13:59:38;;;;;;;1.90;1.30;;;12.10;38.00;;;;;;5091659;27;20215;-88
2021/10/13 14:08:56;;;;;;;1.83;1.00;;;11.60;40.70;;;;;;5084160;28;20197;-91
2021/10/13 14:18:03;;;;;;;1.90;1.50;;;10.90;47.60;;;;;;5107252;28;20210;-89
2021/10/13 14:27:57;;;;;;;2.85;1.58;;;10.50;50.20;;;;;;5100624;28;20211;-86
2021/10/13 14:31:00;;;;;;;3.20;1.77;;;10.40;52.70;;;;;;5101220;28;20332;-87